Time;durP1;ratioP1;P1;durP2;ratioP2;P2;SDS_P1;SDS_P2;PMS_P1;PMS_P2;Temp;Humidity;BMP_temperature;BMP_pressure;BME280_temperature;BME280_humidity;BME280_pressure;Samples;Min_cycle;Max_cycle;Signal;HPM_P1;HPM_P2
2022/01/07 00:02:09;;;;;;;13.95;3.88;;;;;;;;;;5023240;28;20057;-53
2022/01/07 00:04:36;;;;;;;7.10;3.42;;;;;;;;;;5023120;28;20038;-53
2022/01/07 00:07:03;;;;;;;7.72;3.38;;;;;;;;;;5016031;28;20494;-55
2022/01/07 00:09:29;;;;;;;9.18;4.07;;;;;;;;;;5023820;28;20548;-55
2022/01/07 00:11:55;;;;;;;8.82;3.50;;;;;;;;;;5027447;28;20045;-53
2022/01/07 00:14:21;;;;;;;10.15;3.33;;;;;;;;;;5028864;28;20109;-55
2022/01/07 00:16:47;;;;;;;7.40;3.65;;;;;;;;;;5019571;28;20446;-51
2022/01/07 00:19:15;;;;;;;9.63;3.60;;;;;;;;;;5020248;28;20120;-50
2022/01/07 00:21:41;;;;;;;10.48;3.17;;;;;;;;;;5023050;28;20461;-50
2022/01/07 00:24:07;;;;;;;6.25;3.60;;;;;;;;;;5026640;28;20112;-52
2022/01/07 00:26:33;;;;;;;12.20;3.80;;;;;;;;;;5020972;28;20485;-51
2022/01/07 00:28:59;;;;;;;9.75;3.42;;;;;;;;;;5024971;28;20052;-52
2022/01/07 00:31:25;;;;;;;7.53;3.75;;;;;;;;;;5027861;28;20116;-55
2022/01/07 00:33:51;;;;;;;14.07;4.00;;;;;;;;;;5029179;28;20053;-53
2022/01/07 00:36:17;;;;;;;13.75;3.75;;;;;;;;;;5024387;28;20048;-55
2022/01/07 00:38:43;;;;;;;10.07;3.80;;;;;;;;;;5024457;28;20030;-54
2022/01/07 00:41:09;;;;;;;11.38;3.60;;;;;;;;;;5015774;28;20117;-55
2022/01/07 00:43:35;;;;;;;10.02;3.63;;;;;;;;;;5022447;28;20108;-55
2022/01/07 00:46:01;;;;;;;10.10;3.78;;;;;;;;;;5026781;28;20029;-50
2022/01/07 00:48:27;;;;;;;9.82;3.92;;;;;;;;;;5019844;28;20652;-51
2022/01/07 00:50:53;;;;;;;8.35;3.58;;;;;;;;;;5025652;28;20026;-55
2022/01/07 00:53:19;;;;;;;13.02;3.80;;;;;;;;;;5015823;28;20109;-55
2022/01/07 00:55:45;;;;;;;7.78;3.25;;;;;;;;;;5020793;28;20033;-54
2022/01/07 00:58:11;;;;;;;7.47;2.67;;;;;;;;;;5025379;28;20034;-55
2022/01/07 01:00:37;;;;;;;6.05;3.83;;;;;;;;;;5026206;28;20092;-53
2022/01/07 01:03:04;;;;;;;8.93;4.25;;;;;;;;;;5016543;28;20462;-52
2022/01/07 01:05:30;;;;;;;15.07;4.15;;;;;;;;;;5015318;28;20033;-55
2022/01/07 01:07:56;;;;;;;7.80;3.35;;;;;;;;;;5025619;28;20084;-50
2022/01/07 01:10:27;;;;;;;8.60;3.00;;;;;;;;;;5016520;28;20112;-54
2022/01/07 01:12:54;;;;;;;8.40;3.55;;;;;;;;;;5015817;28;20034;-55
2022/01/07 01:15:23;;;;;;;8.85;3.47;;;;;;;;;;5028253;28;20521;-53
2022/01/07 01:17:50;;;;;;;15.40;3.67;;;;;;;;;;5027068;28;20557;-54
2022/01/07 01:20:16;;;;;;;10.15;3.53;;;;;;;;;;5022501;28;20040;-54
2022/01/07 01:22:42;;;;;;;12.77;3.42;;;;;;;;;;5027169;28;20392;-52
2022/01/07 01:25:08;;;;;;;12.30;4.18;;;;;;;;;;5031713;28;20025;-53
2022/01/07 01:27:34;;;;;;;6.13;2.83;;;;;;;;;;5032700;28;20068;-53
2022/01/07 01:30:02;;;;;;;8.45;3.63;;;;;;;;;;5018984;28;20029;-51
2022/01/07 01:32:28;;;;;;;7.75;3.10;;;;;;;;;;5032863;28;20124;-55
2022/01/07 01:34:54;;;;;;;12.32;3.30;;;;;;;;;;5029345;28;20204;-53
2022/01/07 01:37:20;;;;;;;9.25;3.13;;;;;;;;;;5034877;28;20033;-53
2022/01/07 01:39:46;;;;;;;15.75;3.45;;;;;;;;;;5026767;28;20064;-51
2022/01/07 01:42:12;;;;;;;9.43;2.80;;;;;;;;;;5031917;28;20033;-50
2022/01/07 01:44:38;;;;;;;8.82;3.00;;;;;;;;;;5026529;28;20021;-50
2022/01/07 01:47:04;;;;;;;8.75;2.58;;;;;;;;;;5026345;28;20038;-51
2022/01/07 01:49:30;;;;;;;6.70;3.58;;;;;;;;;;5032119;28;20028;-50
2022/01/07 01:51:56;;;;;;;10.43;3.17;;;;;;;;;;5020462;28;20033;-55
2022/01/07 01:54:22;;;;;;;12.95;3.17;;;;;;;;;;5025207;28;20692;-55
2022/01/07 01:56:49;;;;;;;11.65;3.70;;;;;;;;;;5026648;28;20093;-56
2022/01/07 01:59:22;;;;;;;15.00;4.30;;;;;;;;;;5032742;28;20030;-54
2022/01/07 02:01:48;;;;;;;16.83;4.25;;;;;;;;;;5025621;28;20024;-54
2022/01/07 02:04:14;;;;;;;10.65;3.40;;;;;;;;;;5029129;28;20382;-56
2022/01/07 02:06:40;;;;;;;12.40;3.38;;;;;;;;;;5017114;28;20059;-50
2022/01/07 02:09:06;;;;;;;13.40;3.72;;;;;;;;;;5021943;28;20029;-53
2022/01/07 02:11:34;;;;;;;10.55;3.15;;;;;;;;;;5030451;28;20040;-55
2022/01/07 02:14:00;;;;;;;9.40;2.70;;;;;;;;;;5027387;28;20458;-51
2022/01/07 02:16:26;;;;;;;8.48;3.08;;;;;;;;;;5029869;28;20026;-54
2022/01/07 02:18:53;;;;;;;10.25;3.83;;;;;;;;;;5022362;28;20014;-49
2022/01/07 02:21:19;;;;;;;16.30;2.95;;;;;;;;;;5030574;28;20539;-52
2022/01/07 02:23:45;;;;;;;9.00;2.70;;;;;;;;;;5020622;28;20026;-56
2022/01/07 02:26:12;;;;;;;11.65;3.50;;;;;;;;;;5021883;28;20034;-54
2022/01/07 02:28:39;;;;;;;12.27;3.20;;;;;;;;;;5021034;28;20022;-56
2022/01/07 02:31:05;;;;;;;10.75;3.15;;;;;;;;;;5023199;28;20032;-53
2022/01/07 02:33:31;;;;;;;9.25;3.30;;;;;;;;;;5030610;28;20124;-56
2022/01/07 02:35:57;;;;;;;10.48;3.17;;;;;;;;;;5033005;28;20056;-50
2022/01/07 02:38:23;;;;;;;10.82;4.35;;;;;;;;;;5029557;28;20169;-54
2022/01/07 02:40:49;;;;;;;12.20;3.30;;;;;;;;;;5030479;28;20121;-50
2022/01/07 02:43:15;;;;;;;7.35;3.35;;;;;;;;;;5025911;28;20098;-53
2022/01/07 02:45:41;;;;;;;8.45;3.50;;;;;;;;;;5021184;28;20366;-51
2022/01/07 02:48:07;;;;;;;8.52;3.58;;;;;;;;;;5024125;28;20041;-50
2022/01/07 02:50:35;;;;;;;11.57;3.63;;;;;;;;;;5024894;28;20033;-54
2022/01/07 02:53:02;;;;;;;9.75;2.90;;;;;;;;;;5019413;28;21744;-53
2022/01/07 02:55:28;;;;;;;10.00;4.10;;;;;;;;;;5018307;28;20068;-54
2022/01/07 02:57:54;;;;;;;9.13;2.95;;;;;;;;;;5025487;28;20033;-54
2022/01/07 03:00:21;;;;;;;8.82;3.40;;;;;;;;;;5027832;28;20095;-53
2022/01/07 03:02:48;;;;;;;9.85;3.90;;;;;;;;;;5021961;28;20484;-55
2022/01/07 03:05:14;;;;;;;12.93;4.00;;;;;;;;;;5028096;28;20515;-52
2022/01/07 03:07:40;;;;;;;11.38;3.13;;;;;;;;;;5024292;28;20029;-54
2022/01/07 03:10:07;;;;;;;11.60;3.72;;;;;;;;;;5018948;28;20433;-52
2022/01/07 03:12:34;;;;;;;7.28;3.42;;;;;;;;;;5032206;28;20040;-52
2022/01/07 03:15:00;;;;;;;16.02;4.57;;;;;;;;;;5015436;28;20042;-55
2022/01/07 03:17:26;;;;;;;15.38;4.97;;;;;;;;;;5026506;28;20033;-50
2022/01/07 03:19:52;;;;;;;11.63;4.13;;;;;;;;;;5027684;28;20032;-52
2022/01/07 03:22:18;;;;;;;9.90;3.65;;;;;;;;;;5021472;28;20038;-55
2022/01/07 03:24:44;;;;;;;15.30;3.58;;;;;;;;;;5023362;28;20133;-54
2022/01/07 03:27:10;;;;;;;11.20;3.75;;;;;;;;;;5031290;28;20116;-50
2022/01/07 03:29:36;;;;;;;9.98;3.67;;;;;;;;;;5027448;28;20488;-51
2022/01/07 03:32:03;;;;;;;10.75;4.43;;;;;;;;;;5024051;28;20033;-50
2022/01/07 03:34:29;;;;;;;11.30;3.88;;;;;;;;;;5018892;28;20048;-50
2022/01/07 03:36:55;;;;;;;9.40;3.95;;;;;;;;;;5031056;28;20108;-52
2022/01/07 03:39:21;;;;;;;8.20;3.75;;;;;;;;;;5031641;28;20109;-54
2022/01/07 03:41:47;;;;;;;13.77;4.85;;;;;;;;;;5021582;28;20113;-55
2022/01/07 03:44:12;;;;;;;14.13;3.70;;;;;;;;;;5020034;28;20091;-51
2022/01/07 03:46:39;;;;;;;9.70;4.00;;;;;;;;;;5032315;28;20036;-53
2022/01/07 03:49:05;;;;;;;8.82;3.67;;;;;;;;;;5027660;28;20354;-53
2022/01/07 03:51:30;;;;;;;12.40;4.68;;;;;;;;;;5031369;28;20481;-50
2022/01/07 03:53:56;;;;;;;11.32;4.13;;;;;;;;;;5032123;28;20044;-50
2022/01/07 03:56:22;;;;;;;13.20;4.47;;;;;;;;;;5019561;28;20033;-53
2022/01/07 03:58:49;;;;;;;13.27;4.13;;;;;;;;;;5026308;28;20098;-55
2022/01/07 04:01:14;;;;;;;16.13;4.97;;;;;;;;;;5020270;28;20020;-54
2022/01/07 04:03:40;;;;;;;8.40;4.00;;;;;;;;;;5020726;28;20025;-54
2022/01/07 04:06:07;;;;;;;14.75;4.97;;;;;;;;;;5027891;28;20025;-55
2022/01/07 04:08:33;;;;;;;14.30;4.72;;;;;;;;;;5030343;28;20032;-55
2022/01/07 04:10:59;;;;;;;10.85;4.47;;;;;;;;;;5027667;28;20022;-55
2022/01/07 04:13:24;;;;;;;10.85;5.10;;;;;;;;;;5033189;28;20021;-51
2022/01/07 04:15:50;;;;;;;10.32;4.68;;;;;;;;;;5030672;28;20468;-50
2022/01/07 04:18:16;;;;;;;11.10;4.68;;;;;;;;;;5025946;28;20427;-50
2022/01/07 04:20:42;;;;;;;11.95;4.63;;;;;;;;;;5024474;28;20088;-54
2022/01/07 04:23:09;;;;;;;12.75;4.47;;;;;;;;;;5027410;28;20022;-54
2022/01/07 04:25:35;;;;;;;9.80;4.82;;;;;;;;;;5017901;28;20366;-54
2022/01/07 04:28:03;;;;;;;11.55;4.53;;;;;;;;;;5019571;28;20478;-55
2022/01/07 04:30:30;;;;;;;12.15;4.70;;;;;;;;;;5029051;28;20041;-50
2022/01/07 04:32:56;;;;;;;14.43;5.13;;;;;;;;;;5031399;28;20108;-52
2022/01/07 04:35:23;;;;;;;15.80;4.32;;;;;;;;;;5020080;28;20026;-50
2022/01/07 04:37:49;;;;;;;19.45;5.00;;;;;;;;;;5020272;28;20026;-50
2022/01/07 04:40:16;;;;;;;12.48;3.97;;;;;;;;;;5026275;28;20034;-52
2022/01/07 04:42:42;;;;;;;9.93;3.90;;;;;;;;;;5021237;28;20053;-55
2022/01/07 04:45:10;;;;;;;10.63;4.70;;;;;;;;;;5025571;28;20673;-51
2022/01/07 04:47:36;;;;;;;9.50;4.47;;;;;;;;;;5014026;28;20041;-53
2022/01/07 04:50:07;;;;;;;10.93;4.35;;;;;;;;;;5026978;28;20034;-51
2022/01/07 04:52:33;;;;;;;13.60;4.25;;;;;;;;;;5029351;28;20040;-51
2022/01/07 04:54:59;;;;;;;12.32;4.20;;;;;;;;;;5030236;28;20101;-51
2022/01/07 04:57:25;;;;;;;11.02;4.82;;;;;;;;;;5024108;28;20742;-54
2022/01/07 04:59:51;;;;;;;11.98;4.65;;;;;;;;;;5024847;28;20112;-53
2022/01/07 05:02:19;;;;;;;13.45;4.85;;;;;;;;;;5026601;28;20056;-52
2022/01/07 05:04:45;;;;;;;17.55;4.78;;;;;;;;;;5032117;28;20378;-53
2022/01/07 05:07:11;;;;;;;13.18;5.03;;;;;;;;;;5031470;28;20080;-50
2022/01/07 05:09:37;;;;;;;15.70;4.30;;;;;;;;;;5020431;28;20052;-51
2022/01/07 05:12:04;;;;;;;11.32;4.25;;;;;;;;;;5035745;28;20064;-51
2022/01/07 05:14:29;;;;;;;7.97;4.22;;;;;;;;;;5031455;28;20033;-50
2022/01/07 05:16:56;;;;;;;12.40;4.35;;;;;;;;;;5033830;28;20037;-54
2022/01/07 05:19:22;;;;;;;11.57;4.65;;;;;;;;;;5035106;28;20398;-51
2022/01/07 05:21:49;;;;;;;16.17;5.13;;;;;;;;;;5030747;28;20837;-53
2022/01/07 05:24:15;;;;;;;10.32;4.40;;;;;;;;;;5023320;28;20039;-51
2022/01/07 05:26:41;;;;;;;9.07;4.20;;;;;;;;;;5032793;28;20029;-50
2022/01/07 05:29:07;;;;;;;11.32;4.72;;;;;;;;;;5033492;28;20520;-50
2022/01/07 05:31:33;;;;;;;13.93;4.50;;;;;;;;;;5034556;28;20025;-50
2022/01/07 05:33:59;;;;;;;11.75;4.40;;;;;;;;;;5025805;28;20041;-54
2022/01/07 05:36:25;;;;;;;8.10;3.50;;;;;;;;;;5024227;28;20030;-56
2022/01/07 05:38:51;;;;;;;12.73;3.42;;;;;;;;;;5023320;28;20022;-55
2022/01/07 05:41:17;;;;;;;10.57;3.70;;;;;;;;;;5028801;28;20030;-55
2022/01/07 05:43:43;;;;;;;8.93;3.88;;;;;;;;;;5031647;28;20504;-50
2022/01/07 05:46:12;;;;;;;9.25;4.63;;;;;;;;;;5031345;28;20024;-53
2022/01/07 05:48:39;;;;;;;10.73;3.22;;;;;;;;;;5024906;28;21862;-53
2022/01/07 05:51:05;;;;;;;9.98;4.55;;;;;;;;;;5021958;28;20505;-50
2022/01/07 05:53:31;;;;;;;10.60;4.63;;;;;;;;;;5028266;28;20025;-55
2022/01/07 05:55:57;;;;;;;6.95;3.83;;;;;;;;;;5028572;28;20487;-52
2022/01/07 05:58:23;;;;;;;14.05;4.40;;;;;;;;;;5025921;28;20033;-54
2022/01/07 06:00:49;;;;;;;11.10;4.05;;;;;;;;;;5026977;28;20026;-52
2022/01/07 06:03:15;;;;;;;8.88;3.70;;;;;;;;;;5033146;28;20014;-55
2022/01/07 06:05:41;;;;;;;11.02;3.85;;;;;;;;;;5037652;28;20025;-51
2022/01/07 06:08:09;;;;;;;12.98;4.30;;;;;;;;;;5032208;28;20083;-55
2022/01/07 06:10:35;;;;;;;10.95;4.80;;;;;;;;;;5034425;28;20033;-53
2022/01/07 06:13:01;;;;;;;8.85;4.05;;;;;;;;;;5041847;28;20091;-53
2022/01/07 06:15:27;;;;;;;7.65;3.03;;;;;;;;;;5026636;28;20037;-50
2022/01/07 06:17:53;;;;;;;7.35;3.42;;;;;;;;;;5030494;28;20045;-52
2022/01/07 06:20:21;;;;;;;10.45;4.00;;;;;;;;;;5033795;28;20152;-52
2022/01/07 06:22:47;;;;;;;8.70;4.03;;;;;;;;;;5033245;28;20041;-56
2022/01/07 06:25:13;;;;;;;9.30;3.60;;;;;;;;;;5028053;28;20389;-53
2022/01/07 06:27:39;;;;;;;10.80;3.58;;;;;;;;;;5024025;28;20021;-53
2022/01/07 06:30:06;;;;;;;10.77;3.80;;;;;;;;;;5027638;28;20099;-55
2022/01/07 06:32:32;;;;;;;7.28;3.78;;;;;;;;;;5028861;28;20463;-50
2022/01/07 06:34:58;;;;;;;7.07;3.42;;;;;;;;;;5031609;28;20064;-51
2022/01/07 06:37:24;;;;;;;9.20;3.45;;;;;;;;;;5027199;28;20519;-54
2022/01/07 06:39:50;;;;;;;8.13;3.63;;;;;;;;;;5030790;28;20027;-54
2022/01/07 06:42:16;;;;;;;8.70;3.15;;;;;;;;;;5031699;28;20053;-55
2022/01/07 06:44:42;;;;;;;8.52;3.95;;;;;;;;;;5024689;28;20541;-54
2022/01/07 06:47:08;;;;;;;8.32;3.60;;;;;;;;;;5033214;28;20021;-53
2022/01/07 06:49:34;;;;;;;13.35;5.53;;;;;;;;;;5025190;28;20084;-50
2022/01/07 06:52:00;;;;;;;9.63;3.22;;;;;;;;;;5032406;28;20025;-52
2022/01/07 06:54:27;;;;;;;11.27;3.15;;;;;;;;;;5023176;28;20045;-50
2022/01/07 06:56:53;;;;;;;7.50;3.78;;;;;;;;;;5030176;28;20417;-53
2022/01/07 06:59:19;;;;;;;11.45;3.45;;;;;;;;;;5030779;28;20032;-52
2022/01/07 07:01:47;;;;;;;16.67;4.55;;;;;;;;;;5020884;28;20047;-51
2022/01/07 07:04:14;;;;;;;8.55;3.60;;;;;;;;;;5029665;28;20029;-52
2022/01/07 07:06:40;;;;;;;10.73;3.88;;;;;;;;;;5028922;28;20395;-52
2022/01/07 07:09:06;;;;;;;15.98;4.05;;;;;;;;;;5022218;28;20061;-52
2022/01/07 07:11:32;;;;;;;16.83;4.35;;;;;;;;;;5031086;28;20489;-56
2022/01/07 07:13:58;;;;;;;10.40;4.43;;;;;;;;;;5032601;28;20076;-53
2022/01/07 07:16:24;;;;;;;9.43;3.28;;;;;;;;;;5030496;28;20377;-56
2022/01/07 07:18:50;;;;;;;7.70;3.38;;;;;;;;;;5033313;28;20025;-54
2022/01/07 07:21:16;;;;;;;11.50;4.07;;;;;;;;;;5018921;28;20029;-53
2022/01/07 07:23:42;;;;;;;9.18;4.00;;;;;;;;;;5021728;28;20065;-55
2022/01/07 07:26:08;;;;;;;13.02;3.90;;;;;;;;;;5032645;28;20035;-53
2022/01/07 07:28:36;;;;;;;8.10;3.35;;;;;;;;;;5029292;28;20018;-56
2022/01/07 07:31:05;;;;;;;9.45;3.85;;;;;;;;;;5028432;28;20041;-52
2022/01/07 07:33:54;;;;;;;11.88;4.18;;;;;;;;;;5019339;28;20131;-56
2022/01/07 07:36:31;;;;;;;10.20;3.50;;;;;;;;;;5020233;28;20049;-51
2022/01/07 07:38:57;;;;;;;9.05;3.30;;;;;;;;;;5029475;28;20543;-56
2022/01/07 07:41:23;;;;;;;11.30;3.70;;;;;;;;;;5025144;28;20038;-50
2022/01/07 07:43:52;;;;;;;10.85;3.55;;;;;;;;;;5024711;28;20481;-50
2022/01/07 07:46:18;;;;;;;8.73;4.05;;;;;;;;;;5025812;28;20152;-54
2022/01/07 07:48:46;;;;;;;9.18;3.08;;;;;;;;;;5030552;28;20063;-53
2022/01/07 07:51:12;;;;;;;10.60;3.85;;;;;;;;;;5027971;28;20030;-53
2022/01/07 07:53:38;;;;;;;7.18;2.85;;;;;;;;;;5031361;28;20052;-51
2022/01/07 07:56:04;;;;;;;5.97;2.90;;;;;;;;;;5029263;28;20041;-50
2022/01/07 07:58:30;;;;;;;10.52;3.72;;;;;;;;;;5028983;28;20059;-52
2022/01/07 08:00:56;;;;;;;10.90;3.05;;;;;;;;;;5026160;28;20022;-50
2022/01/07 08:03:24;;;;;;;12.82;3.33;;;;;;;;;;5032233;28;20072;-51
2022/01/07 08:05:50;;;;;;;9.00;3.80;;;;;;;;;;5031700;28;20037;-51
2022/01/07 08:08:16;;;;;;;8.13;3.30;;;;;;;;;;5019646;28;20044;-54
2022/01/07 08:11:03;;;;;;;8.05;2.70;;;;;;;;;;5018848;28;20665;-53
2022/01/07 08:15:59;;;;;;;12.65;3.55;;;;;;;;;;5021602;28;20039;-55
2022/01/07 08:18:32;;;;;;;6.43;3.28;;;;;;;;;;5023570;28;20029;-54
2022/01/07 08:21:02;;;;;;;9.50;3.13;;;;;;;;;;5031690;28;20362;-55
2022/01/07 08:23:28;;;;;;;7.75;2.97;;;;;;;;;;5030102;28;20049;-54
2022/01/07 08:25:54;;;;;;;10.30;3.88;;;;;;;;;;5027817;28;20033;-55
2022/01/07 08:28:24;;;;;;;11.38;3.65;;;;;;;;;;5022305;28;20044;-53
2022/01/07 08:36:20;;;;;;;13.13;2.92;;;;;;;;;;5017131;28;20049;-54
2022/01/07 08:38:46;;;;;;;7.65;3.35;;;;;;;;;;5024998;28;20070;-52
2022/01/07 08:41:13;;;;;;;8.98;3.28;;;;;;;;;;5020110;28;20037;-50
2022/01/07 08:43:39;;;;;;;8.18;2.72;;;;;;;;;;5023656;28;20746;-51
2022/01/07 08:46:05;;;;;;;11.50;3.45;;;;;;;;;;5022960;28;20057;-56
2022/01/07 08:48:32;;;;;;;9.35;3.33;;;;;;;;;;5026610;28;20022;-51
2022/01/07 08:50:58;;;;;;;6.80;2.90;;;;;;;;;;5028948;28;20037;-54
2022/01/07 08:53:24;;;;;;;6.82;3.53;;;;;;;;;;5021384;28;20906;-51
2022/01/07 08:55:50;;;;;;;11.77;3.97;;;;;;;;;;5013166;28;20470;-52
2022/01/07 08:58:16;;;;;;;10.52;3.10;;;;;;;;;;5018102;28;20035;-53
2022/01/07 09:00:42;;;;;;;8.55;3.17;;;;;;;;;;5023888;28;20152;-55
2022/01/07 09:03:08;;;;;;;6.03;3.75;;;;;;;;;;5025603;28;20059;-53
2022/01/07 09:05:34;;;;;;;10.45;3.45;;;;;;;;;;5027095;28;20033;-50
2022/01/07 09:08:00;;;;;;;7.38;3.38;;;;;;;;;;5024578;28;20538;-52
2022/01/07 09:10:26;;;;;;;6.15;3.15;;;;;;;;;;5016647;28;20030;-51
2022/01/07 09:12:52;;;;;;;7.40;2.92;;;;;;;;;;5039150;28;20038;-51
2022/01/07 09:15:18;;;;;;;7.93;3.83;;;;;;;;;;5015690;28;20030;-51
2022/01/07 09:17:44;;;;;;;9.40;3.53;;;;;;;;;;5029271;28;20113;-50
2022/01/07 09:20:11;;;;;;;11.27;3.20;;;;;;;;;;5031028;28;20083;-53
2022/01/07 09:22:37;;;;;;;11.55;3.28;;;;;;;;;;5027856;28;20466;-52
2022/01/07 09:25:05;;;;;;;9.25;3.22;;;;;;;;;;5029175;28;20087;-52
2022/01/07 09:27:31;;;;;;;10.85;3.40;;;;;;;;;;5025697;28;20481;-53
2022/01/07 09:29:57;;;;;;;9.95;3.20;;;;;;;;;;5026217;28;20021;-54
2022/01/07 09:32:23;;;;;;;8.38;3.00;;;;;;;;;;5030726;28;20350;-53
2022/01/07 09:34:49;;;;;;;7.13;3.13;;;;;;;;;;5012676;28;20041;-51
2022/01/07 09:37:15;;;;;;;10.05;2.92;;;;;;;;;;5034010;28;20026;-52
2022/01/07 09:39:41;;;;;;;8.95;3.35;;;;;;;;;;5025917;28;20084;-51
2022/01/07 09:42:08;;;;;;;7.85;3.58;;;;;;;;;;5028368;28;20033;-52
2022/01/07 09:44:41;;;;;;;9.73;3.40;;;;;;;;;;5028136;28;20151;-51
2022/01/07 09:47:10;;;;;;;10.93;3.20;;;;;;;;;;5021850;28;20032;-53
2022/01/07 09:49:36;;;;;;;10.25;3.60;;;;;;;;;;5034294;28;20029;-51
2022/01/07 09:52:03;;;;;;;10.38;3.25;;;;;;;;;;5024516;28;20038;-53
2022/01/07 09:54:29;;;;;;;12.82;3.10;;;;;;;;;;5028505;28;20377;-52
2022/01/07 09:56:55;;;;;;;8.45;3.38;;;;;;;;;;5034730;28;20026;-51
2022/01/07 09:59:21;;;;;;;6.45;3.17;;;;;;;;;;5031455;28;20569;-56
2022/01/07 10:01:53;;;;;;;8.23;3.33;;;;;;;;;;5027842;28;20026;-50
2022/01/07 10:04:26;;;;;;;7.47;3.07;;;;;;;;;;5033969;28;20428;-51
2022/01/07 10:07:10;;;;;;;6.13;2.90;;;;;;;;;;5029517;28;20157;-53
2022/01/07 10:09:37;;;;;;;8.02;3.28;;;;;;;;;;5032822;28;20037;-53
2022/01/07 10:12:03;;;;;;;9.63;3.17;;;;;;;;;;5033324;28;20039;-55
2022/01/07 10:14:30;;;;;;;9.75;3.38;;;;;;;;;;5034370;28;20034;-50
2022/01/07 10:16:59;;;;;;;10.13;3.80;;;;;;;;;;5030279;28;20032;-51
2022/01/07 10:19:32;;;;;;;8.35;3.85;;;;;;;;;;5028202;28;20641;-52
2022/01/07 10:21:59;;;;;;;5.85;3.30;;;;;;;;;;5029760;28;20037;-50
2022/01/07 10:24:25;;;;;;;8.02;2.75;;;;;;;;;;5029545;28;20418;-53
2022/01/07 10:27:10;;;;;;;16.95;4.18;;;;;;;;;;5026965;28;20381;-52
2022/01/07 10:29:40;;;;;;;8.30;2.88;;;;;;;;;;5025708;28;20057;-54
2022/01/07 10:32:21;;;;;;;7.72;3.53;;;;;;;;;;5027227;28;20111;-53
2022/01/07 10:35:04;;;;;;;7.63;3.25;;;;;;;;;;5028976;28;20042;-54
2022/01/07 10:37:30;;;;;;;15.10;4.20;;;;;;;;;;5034058;28;20029;-55
2022/01/07 10:39:57;;;;;;;11.65;3.88;;;;;;;;;;5029536;28;20079;-53
2022/01/07 10:42:23;;;;;;;11.43;3.25;;;;;;;;;;5033363;28;20033;-54
2022/01/07 10:45:03;;;;;;;7.43;3.78;;;;;;;;;;5025736;28;20485;-55
2022/01/07 10:47:29;;;;;;;7.78;3.28;;;;;;;;;;5021095;28;20039;-53
2022/01/07 10:50:14;;;;;;;6.00;3.42;;;;;;;;;;5036698;28;20113;-54
2022/01/07 10:52:40;;;;;;;6.68;3.20;;;;;;;;;;5022234;28;20075;-51
2022/01/07 10:55:14;;;;;;;13.02;3.15;;;;;;;;;;5025354;28;20049;-54
2022/01/07 10:57:41;;;;;;;10.05;3.10;;;;;;;;;;5033601;28;20025;-51
2022/01/07 11:00:27;;;;;;;6.95;3.38;;;;;;;;;;5032315;28;20087;-55
2022/01/07 11:02:53;;;;;;;6.55;3.15;;;;;;;;;;5030955;28;20414;-53
2022/01/07 11:05:19;;;;;;;8.30;3.30;;;;;;;;;;5029042;28;20025;-51
2022/01/07 11:07:46;;;;;;;5.75;3.33;;;;;;;;;;5024553;28;20032;-53
2022/01/07 11:10:12;;;;;;;8.77;3.35;;;;;;;;;;5024897;28;20029;-52
2022/01/07 11:12:38;;;;;;;7.78;3.38;;;;;;;;;;5033757;28;20061;-54
2022/01/07 11:15:06;;;;;;;11.88;3.80;;;;;;;;;;5029933;28;20072;-54
2022/01/07 11:17:32;;;;;;;11.10;3.60;;;;;;;;;;5030853;28;20033;-50
2022/01/07 11:19:59;;;;;;;10.82;3.50;;;;;;;;;;5025760;28;20041;-54
2022/01/07 11:22:26;;;;;;;10.05;3.70;;;;;;;;;;5028423;28;20049;-50
2022/01/07 11:24:59;;;;;;;9.20;3.38;;;;;;;;;;5031524;28;20112;-54
2022/01/07 11:27:27;;;;;;;12.65;3.70;;;;;;;;;;5031401;28;20036;-53
2022/01/07 11:30:10;;;;;;;5.30;3.45;;;;;;;;;;5028075;28;20084;-50
2022/01/07 11:32:55;;;;;;;8.40;3.60;;;;;;;;;;5023154;28;20025;-54
2022/01/07 11:35:22;;;;;;;6.03;3.05;;;;;;;;;;5026599;28;20074;-52
2022/01/07 11:37:48;;;;;;;10.57;3.25;;;;;;;;;;5033127;28;20021;-50
2022/01/07 11:40:29;;;;;;;10.90;3.50;;;;;;;;;;5023242;28;20026;-54
2022/01/07 11:42:56;;;;;;;7.55;3.97;;;;;;;;;;5026526;28;20404;-51
2022/01/07 11:45:28;;;;;;;9.75;3.47;;;;;;;;;;5024259;28;20025;-52
2022/01/07 11:48:13;;;;;;;7.25;3.40;;;;;;;;;;5023988;28;20029;-53
2022/01/07 11:50:46;;;;;;;6.13;2.97;;;;;;;;;;5022539;28;20116;-50
2022/01/07 11:53:12;;;;;;;9.35;3.63;;;;;;;;;;5028961;28;20056;-52
2022/01/07 11:55:38;;;;;;;9.48;3.45;;;;;;;;;;5030527;28;20038;-50
2022/01/07 11:58:09;;;;;;;12.35;4.35;;;;;;;;;;5032569;28;20388;-50
2022/01/07 12:00:54;;;;;;;11.50;4.13;;;;;;;;;;5031313;28;20037;-52
2022/01/07 12:03:32;;;;;;;11.07;3.85;;;;;;;;;;5032628;28;20466;-54
2022/01/07 12:05:58;;;;;;;10.35;3.60;;;;;;;;;;5015903;28;20076;-53
2022/01/07 12:09:06;;;;;;;10.25;3.47;;;;;;;;;;5025098;28;20039;-52
2022/01/07 12:11:36;;;;;;;8.80;4.13;;;;;;;;;;5035270;28;20024;-55
2022/01/07 12:14:03;;;;;;;5.93;3.47;;;;;;;;;;5025790;28;20040;-52
2022/01/07 12:16:30;;;;;;;8.05;3.50;;;;;;;;;;5027109;28;20022;-51
2022/01/07 12:19:15;;;;;;;8.95;4.35;;;;;;;;;;5042054;28;20112;-51
2022/01/07 12:22:01;;;;;;;10.65;3.60;;;;;;;;;;5022899;28;20366;-53
2022/01/07 12:24:29;;;;;;;9.43;3.83;;;;;;;;;;5030555;28;20036;-53
2022/01/07 12:27:01;;;;;;;7.38;3.92;;;;;;;;;;5032461;28;20105;-52
2022/01/07 12:29:30;;;;;;;6.55;3.75;;;;;;;;;;5030028;28;20034;-53
2022/01/07 12:31:56;;;;;;;9.65;3.72;;;;;;;;;;5029592;28;20146;-53
2022/01/07 12:34:29;;;;;;;11.35;3.60;;;;;;;;;;5027834;28;20502;-51
2022/01/07 12:36:56;;;;;;;6.38;3.75;;;;;;;;;;5026791;28;20062;-52
2022/01/07 12:39:26;;;;;;;10.82;3.60;;;;;;;;;;5031948;28;20024;-52
2022/01/07 12:41:53;;;;;;;8.15;3.42;;;;;;;;;;5029454;28;20021;-55
2022/01/07 12:44:19;;;;;;;12.35;4.68;;;;;;;;;;5024487;28;20479;-54
2022/01/07 12:46:50;;;;;;;6.25;3.60;;;;;;;;;;5027853;28;20488;-50
2022/01/07 12:49:16;;;;;;;13.13;4.47;;;;;;;;;;5031324;28;20033;-54
2022/01/07 12:51:42;;;;;;;14.10;4.68;;;;;;;;;;5030411;28;20112;-53
2022/01/07 12:54:11;;;;;;;6.97;3.53;;;;;;;;;;5031827;28;20136;-52
2022/01/07 12:56:40;;;;;;;9.02;3.60;;;;;;;;;;5031926;28;20527;-50
2022/01/07 12:59:10;;;;;;;11.50;4.35;;;;;;;;;;5031971;28;20025;-51
2022/01/07 13:01:36;;;;;;;10.02;4.18;;;;;;;;;;5026686;28;20018;-51
2022/01/07 13:04:05;;;;;;;9.70;3.95;;;;;;;;;;5027533;28;20018;-50
2022/01/07 13:06:31;;;;;;;8.60;3.65;;;;;;;;;;5021267;28;20032;-51
2022/01/07 13:08:57;;;;;;;11.90;4.22;;;;;;;;;;5016824;28;20116;-54
2022/01/07 13:11:23;;;;;;;8.85;3.65;;;;;;;;;;5034265;28;20100;-54
2022/01/07 13:14:02;;;;;;;8.85;4.00;;;;;;;;;;5029415;28;20454;-51
2022/01/07 13:16:30;;;;;;;12.35;3.55;;;;;;;;;;5023472;28;20104;-53
2022/01/07 13:19:00;;;;;;;7.43;3.45;;;;;;;;;;5033607;28;20024;-54
2022/01/07 13:21:26;;;;;;;8.77;3.75;;;;;;;;;;5020973;28;20108;-52
2022/01/07 13:23:57;;;;;;;14.27;4.28;;;;;;;;;;5028316;28;20105;-51
2022/01/07 13:26:23;;;;;;;6.43;3.55;;;;;;;;;;5031848;28;20041;-53
2022/01/07 13:28:50;;;;;;;13.63;5.93;;;;;;;;;;5030186;28;20109;-51
2022/01/07 13:31:18;;;;;;;7.78;3.97;;;;;;;;;;5031455;28;20488;-53
2022/01/07 13:33:45;;;;;;;5.65;3.30;;;;;;;;;;5032352;28;20060;-51
2022/01/07 13:36:12;;;;;;;9.80;4.47;;;;;;;;;;5024852;28;20063;-52
2022/01/07 13:38:38;;;;;;;12.30;4.65;;;;;;;;;;5030206;28;20100;-54
2022/01/07 13:41:15;;;;;;;11.20;4.15;;;;;;;;;;5032807;28;20132;-52
2022/01/07 13:43:50;;;;;;;11.70;5.30;;;;;;;;;;5031331;28;20021;-52
2022/01/07 13:46:16;;;;;;;8.70;4.57;;;;;;;;;;5034673;28;20471;-52
2022/01/07 13:48:53;;;;;;;10.77;5.22;;;;;;;;;;5034818;28;20665;-55
2022/01/07 13:51:20;;;;;;;11.98;5.55;;;;;;;;;;5034663;28;20460;-55
2022/01/07 13:54:04;;;;;;;15.65;6.25;;;;;;;;;;5027486;28;20040;-53
2022/01/07 13:56:30;;;;;;;15.15;5.35;;;;;;;;;;5034175;28;20330;-53
2022/01/07 13:58:57;;;;;;;14.77;5.40;;;;;;;;;;5034133;28;20098;-52
2022/01/07 14:01:23;;;;;;;9.95;5.55;;;;;;;;;;5032802;28;20025;-57
2022/01/07 14:03:51;;;;;;;16.30;6.68;;;;;;;;;;5033870;28;20473;-52
2022/01/07 14:06:24;;;;;;;13.50;6.10;;;;;;;;;;5033606;28;20033;-53
2022/01/07 14:08:50;;;;;;;13.75;5.72;;;;;;;;;;5034593;28;20021;-56
2022/01/07 14:11:17;;;;;;;19.55;8.93;;;;;;;;;;5034983;28;20113;-54
2022/01/07 14:13:43;;;;;;;15.10;6.40;;;;;;;;;;5035356;28;20491;-52
2022/01/07 14:16:09;;;;;;;11.45;5.82;;;;;;;;;;5034303;28;20033;-54
2022/01/07 14:18:37;;;;;;;11.23;6.63;;;;;;;;;;5033910;28;20117;-56
2022/01/07 14:21:04;;;;;;;13.27;6.32;;;;;;;;;;5033088;28;20862;-55
2022/01/07 14:23:37;;;;;;;13.43;6.10;;;;;;;;;;5032637;28;20412;-55
2022/01/07 14:26:10;;;;;;;15.90;5.95;;;;;;;;;;5034415;28;20041;-55
2022/01/07 14:28:40;;;;;;;13.57;6.38;;;;;;;;;;5033602;28;20045;-53
2022/01/07 14:31:07;;;;;;;14.57;6.63;;;;;;;;;;5028027;28;20029;-56
2022/01/07 14:33:34;;;;;;;12.30;6.07;;;;;;;;;;5027248;28;20060;-55
2022/01/07 14:36:00;;;;;;;10.63;6.28;;;;;;;;;;5029914;28;20508;-53
2022/01/07 14:38:27;;;;;;;13.23;5.80;;;;;;;;;;5033995;28;20026;-55
2022/01/07 14:40:53;;;;;;;16.08;5.55;;;;;;;;;;5028623;28;20104;-53
2022/01/07 14:43:19;;;;;;;16.25;6.25;;;;;;;;;;5033942;28;20030;-53
2022/01/07 14:45:47;;;;;;;10.88;6.13;;;;;;;;;;5028079;28;20029;-53
2022/01/07 14:48:13;;;;;;;11.38;6.57;;;;;;;;;;5020138;28;20037;-54